Time;durP1;ratioP1;P1;durP2;ratioP2;P2;SDS_P1;SDS_P2;PMS_P1;PMS_P2;Temp;Humidity;BMP_temperature;BMP_pressure;BME280_temperature;BME280_humidity;BME280_pressure;Samples;Min_cycle;Max_cycle;Signal;HPM_P1;HPM_P2
2022/06/16 00:02:09;;;;;;;1.38;0.90;;;15.60;99.90;;;;;;5119560;27;20557;-78
2022/06/16 00:04:45;;;;;;;5.15;1.10;;;15.70;99.90;;;;;;5120891;27;20654;-77
2022/06/16 00:07:18;;;;;;;1.98;0.90;;;15.90;99.90;;;;;;5128890;27;20579;-76
2022/06/16 00:09:51;;;;;;;4.28;0.85;;;16.00;99.90;;;;;;5134972;27;20648;-77
2022/06/16 00:12:22;;;;;;;0.93;0.70;;;16.10;99.90;;;;;;5118030;27;20230;-77
2022/06/16 00:14:52;;;;;;;2.92;0.70;;;16.30;99.90;;;;;;5113598;27;20685;-79
2022/06/16 00:17:23;;;;;;;1.55;0.60;;;16.40;99.90;;;;;;5114187;27;20203;-79
2022/06/16 00:19:54;;;;;;;6.65;1.30;;;16.50;99.90;;;;;;5118449;27;20653;-78
2022/06/16 00:22:25;;;;;;;2.60;0.95;;;16.50;99.90;;;;;;5132037;27;20202;-79
2022/06/16 00:24:57;;;;;;;2.03;0.60;;;16.60;99.90;;;;;;5128143;27;20286;-77
2022/06/16 00:27:28;;;;;;;0.70;0.50;;;16.80;99.90;;;;;;5124492;27;20214;-78
2022/06/16 00:29:59;;;;;;;0.75;0.50;;;16.90;99.90;;;;;;5116540;27;20203;-78
2022/06/16 00:32:30;;;;;;;0.88;0.55;;;17.00;99.90;;;;;;5123855;27;20191;-81
2022/06/16 00:35:00;;;;;;;1.38;0.60;;;17.20;99.90;;;;;;5132597;27;20240;-77
2022/06/16 00:37:31;;;;;;;0.73;0.60;;;17.30;99.90;;;;;;5123158;27;20650;-76
2022/06/16 00:40:04;;;;;;;1.45;0.52;;;17.40;99.90;;;;;;5127138;27;20599;-79
2022/06/16 00:42:35;;;;;;;0.88;0.50;;;17.60;99.90;;;;;;5114113;27;20248;-79
2022/06/16 00:45:26;;;;;;;1.92;0.60;;;17.50;99.90;;;;;;5123012;27;20734;-79
2022/06/16 00:47:57;;;;;;;2.80;0.60;;;17.40;99.90;;;;;;5113843;27;20200;-78
2022/06/16 00:50:28;;;;;;;1.65;0.80;;;17.30;99.90;;;;;;5130287;27;20203;-78
2022/06/16 00:53:00;;;;;;;1.48;0.73;;;17.40;99.90;;;;;;5126977;27;20192;-81
2022/06/16 00:55:32;;;;;;;1.83;0.60;;;17.50;99.90;;;;;;5133996;27;20209;-78
2022/06/16 00:58:05;;;;;;;2.78;0.80;;;17.60;99.90;;;;;;5134842;27;20558;-77
2022/06/16 01:00:35;;;;;;;1.90;0.77;;;17.80;99.90;;;;;;5131277;27;20203;-81
2022/06/16 01:03:06;;;;;;;2.55;0.40;;;18.00;99.90;;;;;;5127101;27;20234;-78
2022/06/16 01:05:36;;;;;;;0.47;0.47;;;18.00;99.90;;;;;;5129863;27;20622;-77
2022/06/16 01:08:07;;;;;;;1.50;0.55;;;18.20;99.90;;;;;;5129459;27;20376;-79
2022/06/16 01:10:45;;;;;;;0.52;0.40;;;18.20;99.90;;;;;;5134610;27;20198;-79
2022/06/16 01:13:43;;;;;;;1.38;0.63;;;18.30;99.90;;;;;;5114888;27;20286;-82
2022/06/16 01:16:23;;;;;;;0.60;0.40;;;18.40;99.90;;;;;;5119675;27;20202;-76
2022/06/16 01:19:03;;;;;;;2.28;0.30;;;18.50;99.90;;;;;;5125366;27;20205;-77
2022/06/16 01:21:38;;;;;;;1.50;0.57;;;18.60;99.90;;;;;;5123239;27;20554;-77
2022/06/16 01:24:45;;;;;;;2.17;0.40;;;18.70;99.90;;;;;;5131144;27;20202;-78
2022/06/16 01:27:47;;;;;;;2.58;0.70;;;18.80;99.90;;;;;;5124144;27;20712;-79
2022/06/16 01:30:23;;;;;;;0.60;0.30;;;18.90;99.90;;;;;;5131487;27;20201;-79
2022/06/16 01:33:04;;;;;;;1.35;0.35;;;18.90;99.90;;;;;;5126424;28;20213;-77
2022/06/16 01:35:42;;;;;;;0.43;0.35;;;18.90;99.90;;;;;;5129685;27;20627;-81
2022/06/16 01:38:21;;;;;;;0.68;0.30;;;19.00;99.90;;;;;;5118650;27;20633;-79
2022/06/16 01:41:00;;;;;;;0.28;0.28;;;19.10;99.90;;;;;;5121139;27;20573;-78
2022/06/16 01:43:34;;;;;;;0.45;0.30;;;19.20;99.90;;;;;;5131019;27;20297;-81
2022/06/16 01:46:11;;;;;;;1.38;0.50;;;19.20;99.90;;;;;;5125500;27;20493;-79
2022/06/16 01:48:47;;;;;;;0.65;0.40;;;19.30;99.90;;;;;;5131201;27;20282;-83
2022/06/16 01:51:24;;;;;;;1.13;0.35;;;19.40;99.90;;;;;;5118000;27;20214;-83
2022/06/16 01:54:00;;;;;;;2.10;0.45;;;19.40;99.90;;;;;;5117745;28;20203;-83
2022/06/16 01:56:36;;;;;;;0.73;0.35;;;19.40;99.90;;;;;;5129956;27;20199;-82
2022/06/16 01:59:11;;;;;;;1.95;0.30;;;19.60;99.90;;;;;;5127196;27;20194;-82
2022/06/16 02:01:48;;;;;;;3.25;0.45;;;19.60;99.90;;;;;;5135985;27;20193;-79
2022/06/16 02:22:13;;;;;;;1.02;0.40;;;19.90;99.90;;;;;;5061797;28;20189;-79
2022/06/16 03:00:09;;;;;;;0.47;0.40;;;20.40;99.90;;;;;;5057448;28;20300;-87
2022/06/16 03:03:39;;;;;;;0.77;0.32;;;20.30;99.90;;;;;;5074782;28;20290;-84
2022/06/16 03:06:42;;;;;;;0.93;0.40;;;20.40;99.90;;;;;;5089637;28;20207;-78
2022/06/16 03:09:43;;;;;;;1.60;0.35;;;20.40;99.90;;;;;;5086453;28;20196;-81
2022/06/16 03:16:35;;;;;;;1.10;0.50;;;20.30;99.90;;;;;;5085493;28;20286;-82
2022/06/16 03:33:57;;;;;;;5.38;1.08;;;20.30;99.90;;;;;;4973148;28;20248;-86
2022/06/16 03:40:25;;;;;;;1.10;0.45;;;20.40;99.90;;;;;;4908725;29;20213;-84
2022/06/16 03:57:12;;;;;;;2.50;0.52;;;19.80;99.90;;;;;;4787607;29;20228;-80
2022/06/16 04:57:49;;;;;;;0.95;0.60;;;20.20;99.90;;;;;;4904270;29;20706;-80
2022/06/16 05:04:17;;;;;;;2.03;0.55;;;20.40;99.90;;;;;;4897110;29;20225;-83
2022/06/16 05:26:53;;;;;;;0.73;0.40;;;19.80;99.90;;;;;;4819098;29;20216;-83
2022/06/16 06:22:02;;;;;;;1.55;1.13;;;18.90;99.90;;;;;;4977277;28;20580;-79
2022/06/16 06:32:26;;;;;;;2.35;1.08;;;18.60;99.90;;;;;;4924549;29;20733;-78
2022/06/16 06:45:55;;;;;;;2.10;0.57;;;18.30;99.90;;;;;;4841611;29;20676;-79
2022/06/16 07:53:48;;;;;;;1.25;1.00;;;16.90;99.90;;;;;;4936130;29;20614;-80
2022/06/16 08:18:02;;;;;;;1.48;0.90;;;16.60;99.90;;;;;;4973841;28;20199;-78
2022/06/16 08:34:50;;;;;;;1.50;1.00;;;16.40;99.90;;;;;;4895010;29;20291;-77
2022/06/16 08:45:09;;;;;;;1.55;0.93;;;16.20;99.90;;;;;;4953275;29;20193;-77
2022/06/16 08:52:29;;;;;;;1.65;1.00;;;16.00;99.90;;;;;;5005916;28;20206;-78
2022/06/16 08:58:40;;;;;;;1.30;0.77;;;15.90;99.90;;;;;;4994213;28;20662;-77
2022/06/16 09:01:16;;;;;;;2.85;0.90;;;15.80;99.90;;;;;;5011141;28;20226;-77
2022/06/16 09:03:50;;;;;;;1.23;1.02;;;15.80;99.90;;;;;;5011276;28;20199;-77
2022/06/16 09:06:33;;;;;;;1.38;1.10;;;15.70;99.90;;;;;;5010652;28;20233;-77
2022/06/16 09:09:15;;;;;;;2.38;1.20;;;15.70;99.90;;;;;;5007042;28;20701;-77
2022/06/16 09:11:54;;;;;;;2.78;0.85;;;15.60;99.90;;;;;;5012971;28;20206;-79
2022/06/16 09:17:43;;;;;;;1.67;1.00;;;15.60;99.90;;;;;;5032364;28;20193;-77
2022/06/16 09:20:19;;;;;;;1.63;1.10;;;15.50;99.90;;;;;;5033263;28;20194;-78
2022/06/16 09:23:07;;;;;;;1.58;1.10;;;15.50;99.90;;;;;;5032927;28;20551;-78
2022/06/16 09:25:53;;;;;;;1.98;1.35;;;15.40;99.90;;;;;;5031971;28;20669;-77
2022/06/16 09:28:31;;;;;;;2.72;1.30;;;15.30;99.90;;;;;;5027972;28;20214;-78
2022/06/16 09:31:04;;;;;;;2.63;1.20;;;15.30;99.90;;;;;;5032575;28;20186;-79
2022/06/16 09:33:41;;;;;;;3.35;1.40;;;15.20;99.90;;;;;;5030103;28;20186;-79
2022/06/16 09:36:16;;;;;;;2.72;1.20;;;15.20;99.90;;;;;;5033022;28;20193;-78
2022/06/16 09:38:56;;;;;;;3.03;1.00;;;15.20;99.90;;;;;;5033072;28;20264;-78
2022/06/16 09:44:22;;;;;;;1.95;1.10;;;15.20;99.90;;;;;;5033373;28;20193;-79
2022/06/16 09:46:56;;;;;;;1.58;0.98;;;15.20;99.90;;;;;;5032626;28;20244;-79
2022/06/16 09:49:34;;;;;;;1.77;1.02;;;15.10;99.90;;;;;;5032991;28;20210;-78
2022/06/16 09:52:14;;;;;;;2.05;1.10;;;15.10;99.90;;;;;;5033136;28;20566;-78
2022/06/16 09:54:49;;;;;;;1.30;1.00;;;15.10;99.90;;;;;;5026654;28;20207;-79
2022/06/16 09:57:23;;;;;;;2.17;1.10;;;15.10;99.90;;;;;;5028166;28;20201;-79
2022/06/16 09:59:59;;;;;;;3.35;1.30;;;15.00;99.90;;;;;;5035031;28;20217;-76
2022/06/16 10:02:35;;;;;;;1.25;0.98;;;15.00;99.90;;;;;;5035134;28;20232;-76
2022/06/16 10:05:20;;;;;;;2.67;1.05;;;15.00;99.90;;;;;;5035890;28;20217;-77
2022/06/16 10:07:59;;;;;;;4.50;1.30;;;14.90;99.90;;;;;;5017181;28;20226;-76
2022/06/16 10:10:39;;;;;;;3.80;1.17;;;14.90;99.90;;;;;;5025309;28;20273;-77
2022/06/16 10:13:17;;;;;;;3.40;1.40;;;14.90;99.90;;;;;;5035239;28;20187;-77
2022/06/16 10:15:51;;;;;;;3.97;1.20;;;14.80;99.90;;;;;;5036561;28;20194;-76
2022/06/16 10:18:22;;;;;;;3.00;1.65;;;14.80;99.90;;;;;;5036856;28;20197;-76
2022/06/16 10:20:55;;;;;;;1.65;1.23;;;14.70;99.90;;;;;;5036087;28;20659;-76
2022/06/16 10:23:30;;;;;;;2.25;1.48;;;14.70;99.90;;;;;;5036111;28;20214;-76
2022/06/16 10:26:03;;;;;;;1.48;1.10;;;14.60;99.90;;;;;;5026288;28;20197;-77
2022/06/16 10:28:36;;;;;;;1.67;1.23;;;14.60;99.90;;;;;;5036515;28;20222;-78
2022/06/16 10:31:08;;;;;;;2.83;1.30;;;14.50;99.90;;;;;;5035971;28;20562;-75
2022/06/16 10:33:54;;;;;;;2.63;1.48;;;14.40;99.90;;;;;;5036450;28;20205;-75
2022/06/16 10:36:28;;;;;;;1.70;1.27;;;14.30;99.90;;;;;;5036381;28;20579;-75
2022/06/16 10:39:19;;;;;;;2.20;1.35;;;14.30;99.90;;;;;;5036377;28;20542;-75
2022/06/16 10:41:57;;;;;;;2.92;1.60;;;14.20;99.90;;;;;;5035975;28;20198;-75
2022/06/16 10:44:31;;;;;;;3.80;1.90;;;14.10;99.90;;;;;;5036303;28;20198;-76
2022/06/16 10:47:06;;;;;;;2.97;1.38;;;14.10;99.90;;;;;;5035764;28;20202;-75
2022/06/16 10:49:41;;;;;;;2.00;1.30;;;14.10;99.90;;;;;;5036007;28;20303;-75
2022/06/16 10:52:23;;;;;;;2.92;1.70;;;14.00;99.90;;;;;;5035476;28;20186;-75
2022/06/16 10:55:00;;;;;;;2.92;1.58;;;14.00;99.90;;;;;;5035617;28;20194;-75
2022/06/16 10:57:33;;;;;;;3.47;1.65;;;14.10;99.90;;;;;;5035970;28;20186;-75
2022/06/16 11:00:14;;;;;;;5.20;1.90;;;14.10;99.90;;;;;;5034340;28;20222;-75
2022/06/16 11:02:59;;;;;;;3.60;1.88;;;14.10;99.90;;;;;;5016189;28;20233;-75
2022/06/16 11:05:31;;;;;;;2.53;1.70;;;14.00;99.90;;;;;;5016052;28;20199;-75
2022/06/16 11:08:12;;;;;;;4.90;1.90;;;14.00;99.90;;;;;;5029055;28;20194;-75
2022/06/16 11:10:44;;;;;;;3.85;1.90;;;14.00;99.90;;;;;;5031371;28;20657;-75
2022/06/16 11:13:18;;;;;;;2.90;1.80;;;14.00;99.90;;;;;;5035563;28;20194;-75
2022/06/16 11:15:53;;;;;;;5.15;1.90;;;14.00;99.90;;;;;;5035503;28;20220;-76
2022/06/16 11:18:27;;;;;;;3.67;2.00;;;14.00;99.90;;;;;;5035640;28;20197;-75
2022/06/16 11:21:00;;;;;;;4.63;1.98;;;14.00;99.90;;;;;;5035199;28;20194;-76
2022/06/16 11:23:36;;;;;;;4.35;1.90;;;14.00;99.90;;;;;;5035084;28;20244;-75
2022/06/16 11:26:19;;;;;;;4.55;2.00;;;13.90;99.90;;;;;;5035324;28;20194;-75
2022/06/16 11:28:52;;;;;;;4.38;2.13;;;13.90;99.90;;;;;;5035290;28;20218;-77
2022/06/16 11:31:26;;;;;;;5.28;2.10;;;13.90;99.90;;;;;;5034970;28;20190;-77
2022/06/16 11:34:11;;;;;;;3.80;1.90;;;13.90;99.90;;;;;;5035056;28;20191;-78
2022/06/16 11:36:57;;;;;;;4.07;2.00;;;13.80;99.90;;;;;;5035004;28;20206;-76
2022/06/16 11:39:43;;;;;;;5.82;2.00;;;13.80;99.90;;;;;;5035293;28;20260;-77
2022/06/16 11:42:25;;;;;;;5.35;2.13;;;13.80;99.90;;;;;;5034528;28;20191;-76
2022/06/16 11:45:04;;;;;;;5.40;2.47;;;13.70;99.90;;;;;;5034960;28;20194;-77
2022/06/16 11:47:47;;;;;;;6.30;2.58;;;13.70;99.90;;;;;;5028794;28;20202;-77
2022/06/16 11:50:27;;;;;;;5.63;2.65;;;13.60;99.90;;;;;;5034664;28;20214;-77
2022/06/16 11:53:07;;;;;;;5.00;2.42;;;13.60;99.90;;;;;;5015303;28;20234;-77
2022/06/16 11:55:42;;;;;;;5.00;2.58;;;13.60;99.90;;;;;;5016945;28;20199;-76
2022/06/16 11:58:38;;;;;;;4.20;2.22;;;13.50;99.90;;;;;;5033807;28;20596;-75
2022/06/16 12:01:12;;;;;;;3.40;2.30;;;13.50;99.90;;;;;;5033766;28;20238;-75
2022/06/16 12:04:25;;;;;;;6.95;2.38;;;13.50;99.90;;;;;;5034840;28;20244;-75
2022/06/16 12:07:11;;;;;;;3.08;2.30;;;13.40;99.90;;;;;;5033955;28;20205;-74
2022/06/16 12:09:47;;;;;;;3.88;2.40;;;13.50;99.90;;;;;;5033959;28;20301;-74
2022/06/16 12:12:24;;;;;;;3.08;2.10;;;13.40;99.90;;;;;;5034412;28;20186;-74
2022/06/16 12:15:01;;;;;;;2.55;1.77;;;13.40;99.90;;;;;;5034611;28;20247;-74
2022/06/16 12:17:38;;;;;;;3.03;1.70;;;13.40;99.90;;;;;;5034158;28;20633;-74
2022/06/16 12:20:17;;;;;;;1.75;1.63;;;13.50;99.90;;;;;;5034246;28;20232;-75
2022/06/16 12:22:52;;;;;;;2.35;1.60;;;13.50;99.90;;;;;;5033971;28;20276;-74
2022/06/16 12:25:33;;;;;;;2.38;1.63;;;13.50;99.90;;;;;;5034056;28;20561;-74
2022/06/16 12:28:10;;;;;;;4.88;2.10;;;13.50;99.90;;;;;;5033777;28;20248;-75
2022/06/16 12:30:48;;;;;;;4.43;2.17;;;13.50;99.90;;;;;;5034161;28;20672;-75
2022/06/16 12:33:28;;;;;;;2.83;1.75;;;13.40;99.90;;;;;;5033795;28;20193;-75
2022/06/16 12:36:04;;;;;;;3.35;1.80;;;13.40;99.90;;;;;;5032324;28;20182;-75
2022/06/16 12:38:39;;;;;;;4.97;2.10;;;13.40;99.90;;;;;;5032174;28;20209;-74
2022/06/16 12:41:12;;;;;;;4.15;2.20;;;13.40;99.90;;;;;;5031654;28;20555;-74
2022/06/16 12:43:47;;;;;;;2.13;1.50;;;13.40;99.90;;;;;;5032032;28;20190;-74
2022/06/16 12:46:25;;;;;;;3.25;1.90;;;13.30;99.90;;;;;;5033837;28;20198;-74
2022/06/16 12:49:00;;;;;;;3.63;2.10;;;13.30;99.90;;;;;;5031721;28;20260;-75
2022/06/16 12:51:36;;;;;;;2.55;1.80;;;13.20;99.90;;;;;;5032490;28;20193;-75
2022/06/16 12:54:10;;;;;;;4.10;1.90;;;13.20;99.90;;;;;;5032426;28;20197;-76
2022/06/16 12:56:48;;;;;;;3.15;2.10;;;13.10;99.90;;;;;;5030094;28;20183;-75
2022/06/16 12:59:24;;;;;;;3.50;2.20;;;13.10;99.90;;;;;;5032139;28;20230;-75
2022/06/16 13:01:58;;;;;;;3.78;2.25;;;13.10;99.90;;;;;;5033474;28;20245;-75
2022/06/16 13:04:31;;;;;;;5.00;2.00;;;13.10;99.90;;;;;;5033392;28;20581;-75
2022/06/16 13:07:04;;;;;;;3.20;2.03;;;13.00;99.90;;;;;;5033341;28;20661;-75
2022/06/16 13:09:35;;;;;;;3.42;1.88;;;13.00;99.90;;;;;;5033128;28;20214;-74
2022/06/16 13:12:09;;;;;;;5.68;2.00;;;13.00;99.90;;;;;;5033368;28;20209;-75
2022/06/16 13:14:49;;;;;;;2.92;1.90;;;13.00;99.90;;;;;;5032942;28;20279;-75
2022/06/16 13:17:28;;;;;;;3.35;1.63;;;13.00;99.90;;;;;;5027331;28;20190;-75
2022/06/16 13:20:03;;;;;;;3.30;1.85;;;12.90;99.90;;;;;;5031895;28;20281;-75
2022/06/16 13:22:37;;;;;;;2.40;1.80;;;12.90;99.90;;;;;;5031540;28;20186;-74
2022/06/16 13:25:10;;;;;;;3.40;1.90;;;12.90;99.90;;;;;;5032550;28;20637;-75
2022/06/16 13:27:53;;;;;;;4.57;2.20;;;12.90;99.90;;;;;;5032666;28;20658;-74
2022/06/16 13:30:42;;;;;;;2.95;2.10;;;12.80;99.90;;;;;;5033332;28;20229;-74
2022/06/16 13:33:24;;;;;;;3.03;2.03;;;12.70;99.90;;;;;;5017625;28;20202;-75
2022/06/16 13:36:13;;;;;;;4.13;2.17;;;12.70;99.90;;;;;;5032893;28;20198;-74
2022/06/16 13:38:47;;;;;;;3.92;2.13;;;12.60;99.90;;;;;;5032829;28;20232;-75
2022/06/16 13:41:49;;;;;;;4.32;2.20;;;12.50;99.90;;;;;;5032867;28;20213;-74
2022/06/16 13:44:29;;;;;;;4.72;2.30;;;12.50;99.90;;;;;;5033217;28;20544;-74
2022/06/16 13:47:25;;;;;;;2.90;1.83;;;12.50;99.90;;;;;;5033206;28;20699;-75
2022/06/16 13:50:13;;;;;;;3.38;1.90;;;12.40;99.90;;;;;;5029036;28;20221;-75
2022/06/16 13:52:46;;;;;;;3.60;2.05;;;12.40;99.90;;;;;;5032978;28;20629;-74
2022/06/16 13:55:32;;;;;;;4.25;2.38;;;12.40;99.90;;;;;;5032866;28;20206;-76
2022/06/16 13:58:28;;;;;;;4.80;2.13;;;12.40;99.90;;;;;;5032664;28;20186;-75
2022/06/16 14:01:11;;;;;;;3.97;2.08;;;12.40;99.90;;;;;;5021339;28;20710;-74
2022/06/16 14:03:59;;;;;;;4.28;2.30;;;12.40;99.90;;;;;;5073173;22;20645;-75
2022/06/16 14:06:34;;;;;;;3.20;2.03;;;12.30;99.90;;;;;;5069536;28;20189;-75
2022/06/16 14:09:12;;;;;;;3.53;2.20;;;12.30;99.90;;;;;;5076795;28;20204;-75
2022/06/16 14:11:48;;;;;;;5.43;1.95;;;12.30;99.90;;;;;;5078234;28;20282;-75
2022/06/16 14:14:20;;;;;;;4.57;2.35;;;12.20;99.90;;;;;;5056869;28;20550;-75
2022/06/16 14:16:55;;;;;;;4.22;1.90;;;12.20;99.90;;;;;;5070021;28;20211;-75
2022/06/16 14:19:30;;;;;;;4.38;1.70;;;12.10;99.90;;;;;;5078780;28;20181;-75
2022/06/16 14:22:06;;;;;;;4.20;2.10;;;12.10;99.90;;;;;;5081462;28;20184;-74
2022/06/16 14:25:00;;;;;;;2.67;1.70;;;12.10;99.90;;;;;;5081727;28;20185;-76
2022/06/16 14:27:43;;;;;;;3.40;2.08;;;12.10;99.90;;;;;;5064750;28;20204;-74
2022/06/16 14:30:19;;;;;;;2.97;1.70;;;12.10;99.90;;;;;;5079373;28;20207;-75
2022/06/16 14:32:58;;;;;;;4.00;2.20;;;12.10;99.90;;;;;;5079419;28;20196;-75
2022/06/16 14:35:33;;;;;;;3.72;1.90;;;12.10;99.90;;;;;;5071572;28;20191;-75
2022/06/16 14:38:09;;;;;;;3.70;1.65;;;12.10;99.90;;;;;;5076691;28;20193;-75
2022/06/16 14:40:46;;;;;;;3.25;1.70;;;12.20;99.90;;;;;;5076030;28;20213;-75
2022/06/16 14:43:25;;;;;;;1.83;1.70;;;12.20;99.90;;;;;;5052394;28;20196;-75
2022/06/16 14:46:03;;;;;;;2.50;1.70;;;12.20;99.90;;;;;;5065853;28;20258;-75
2022/06/16 14:48:37;;;;;;;5.95;1.80;;;12.20;99.90;;;;;;5065232;28;20192;-75
2022/06/16 14:51:13;;;;;;;2.75;1.75;;;12.10;99.90;;;;;;5065185;28;20209;-75
2022/06/16 14:53:53;;;;;;;3.03;1.90;;;12.10;99.90;;;;;;5055843;28;20198;-75
2022/06/16 14:56:24;;;;;;;3.40;2.03;;;12.20;99.90;;;;;;5055745;28;20217;-76
2022/06/16 14:58:57;;;;;;;3.78;1.80;;;12.10;99.90;;;;;;5055813;28;20212;-75
2022/06/16 15:01:31;;;;;;;3.97;2.13;;;12.10;99.90;;;;;;5072742;28;20193;-74
2022/06/16 15:04:03;;;;;;;3.95;1.95;;;12.00;99.90;;;;;;5070816;28;20244;-75
2022/06/16 15:06:38;;;;;;;4.28;2.35;;;12.00;99.90;;;;;;5055541;28;20663;-75
2022/06/16 15:09:14;;;;;;;3.80;2.10;;;12.00;99.90;;;;;;5035691;28;20190;-75
2022/06/16 15:11:46;;;;;;;3.60;2.33;;;12.00;99.90;;;;;;5045225;28;20190;-76
2022/06/16 15:14:19;;;;;;;3.80;1.80;;;11.90;99.90;;;;;;5055783;28;20641;-75
2022/06/16 15:19:43;;;;;;;6.53;2.30;;;11.80;99.90;;;;;;5055172;28;20277;-75
2022/06/16 15:22:16;;;;;;;4.60;2.20;;;11.70;99.90;;;;;;5054547;28;20190;-74
2022/06/16 15:24:57;;;;;;;4.68;2.40;;;11.60;99.90;;;;;;5055103;28;20198;-75
2022/06/16 15:27:33;;;;;;;3.67;2.35;;;11.50;99.90;;;;;;5055299;28;20559;-75
2022/06/16 15:30:06;;;;;;;6.22;2.60;;;11.60;99.90;;;;;;5054041;28;20213;-75
2022/06/16 15:38:17;;;;;;;5.75;2.38;;;11.50;99.90;;;;;;5055107;28;20200;-77
2022/06/16 15:40:52;;;;;;;4.28;2.55;;;11.50;99.90;;;;;;5066801;28;20196;-76
2022/06/16 15:43:25;;;;;;;2.97;1.98;;;11.50;99.90;;;;;;5074968;28;20192;-77
2022/06/16 15:45:59;;;;;;;4.55;2.55;;;11.50;99.90;;;;;;5074999;28;20200;-77
2022/06/16 15:48:33;;;;;;;4.15;2.38;;;11.50;99.90;;;;;;5075203;28;20185;-77
2022/06/16 15:51:09;;;;;;;4.88;2.20;;;11.30;99.90;;;;;;5074866;28;20217;-78
2022/06/16 15:53:42;;;;;;;3.17;2.40;;;11.40;99.90;;;;;;5062792;28;20192;-78
2022/06/16 15:56:21;;;;;;;5.95;2.25;;;11.40;99.90;;;;;;5055943;28;20663;-78
2022/06/16 15:59:01;;;;;;;4.88;2.50;;;11.30;99.90;;;;;;5054926;28;20543;-77
2022/06/16 16:01:33;;;;;;;5.97;2.63;;;11.30;99.90;;;;;;5053939;28;20193;-77
2022/06/16 16:04:06;;;;;;;4.78;2.40;;;11.30;99.90;;;;;;5064990;28;20243;-78
2022/06/16 16:06:38;;;;;;;4.40;2.45;;;11.30;99.90;;;;;;5053308;28;20186;-77
2022/06/16 16:09:13;;;;;;;3.83;2.72;;;11.30;99.90;;;;;;5044101;28;20197;-78
2022/06/16 16:11:46;;;;;;;4.70;2.60;;;11.30;99.90;;;;;;5054279;28;20239;-78
2022/06/16 16:14:17;;;;;;;5.10;2.40;;;11.30;99.90;;;;;;5054358;28;20193;-77
2022/06/16 16:17:04;;;;;;;3.85;2.35;;;11.20;99.90;;;;;;5054212;28;20197;-78
2022/06/16 16:19:55;;;;;;;2.72;2.20;;;11.10;99.90;;;;;;5054190;28;20186;-78
2022/06/16 16:22:25;;;;;;;4.75;2.50;;;11.00;99.90;;;;;;5053725;28;20185;-77
2022/06/16 16:24:57;;;;;;;3.92;2.80;;;11.00;99.90;;;;;;5053955;28;20181;-78
2022/06/16 16:27:31;;;;;;;4.35;2.50;;;11.00;99.90;;;;;;5054301;28;20193;-78
2022/06/16 16:30:02;;;;;;;6.18;2.67;;;10.90;99.90;;;;;;5053967;28;20213;-78
2022/06/16 16:32:34;;;;;;;4.10;2.30;;;10.90;99.90;;;;;;5053829;28;20655;-78
2022/06/16 16:35:08;;;;;;;4.05;2.22;;;10.90;99.90;;;;;;5053875;28;20239;-78
2022/06/16 16:37:39;;;;;;;5.07;2.60;;;10.90;99.90;;;;;;5053824;28;20691;-77
2022/06/16 16:40:14;;;;;;;4.70;2.83;;;10.90;99.90;;;;;;5053470;28;20198;-78
2022/06/16 16:43:00;;;;;;;5.05;2.40;;;10.80;99.90;;;;;;5053805;28;20287;-78
2022/06/16 16:45:39;;;;;;;5.10;2.50;;;10.90;99.90;;;;;;5052940;28;20243;-77
2022/06/16 16:48:18;;;;;;;4.40;2.45;;;10.90;99.90;;;;;;5053318;28;20197;-77
2022/06/16 16:50:52;;;;;;;2.95;2.13;;;10.80;99.90;;;;;;5053810;28;20221;-77
2022/06/16 16:53:32;;;;;;;5.70;2.53;;;10.80;99.90;;;;;;5053703;28;20190;-78
2022/06/16 16:56:13;;;;;;;2.92;2.10;;;10.80;99.90;;;;;;5053842;28;20861;-78
2022/06/16 16:58:48;;;;;;;4.10;2.13;;;10.80;99.90;;;;;;5052815;28;20616;-78
2022/06/16 17:01:19;;;;;;;4.60;2.60;;;10.80;99.90;;;;;;5052327;28;20193;-78
2022/06/16 17:03:50;;;;;;;3.45;2.28;;;10.80;99.90;;;;;;5062088;28;20233;-78
2022/06/16 17:06:21;;;;;;;6.53;2.85;;;10.80;99.90;;;;;;5054908;28;20194;-79
2022/06/16 17:08:52;;;;;;;3.92;2.20;;;10.80;99.90;;;;;;5052292;28;20193;-75
2022/06/16 17:14:12;;;;;;;3.67;2.40;;;10.80;99.90;;;;;;5054545;28;20280;-76
2022/06/16 17:16:42;;;;;;;4.22;2.50;;;10.80;99.90;;;;;;5048097;28;20193;-75
2022/06/16 17:19:13;;;;;;;6.50;2.70;;;10.80;99.90;;;;;;5053766;28;20198;-75
2022/06/16 17:21:44;;;;;;;3.88;2.50;;;10.90;99.90;;;;;;5053295;28;20201;-75
2022/06/16 17:24:19;;;;;;;5.82;2.30;;;10.80;99.90;;;;;;5052969;28;20550;-75
2022/06/16 17:26:49;;;;;;;4.10;2.40;;;10.70;99.90;;;;;;5053168;28;20197;-75
2022/06/16 17:29:22;;;;;;;3.63;2.10;;;10.70;99.90;;;;;;5053117;28;20186;-75
2022/06/16 17:31:54;;;;;;;5.43;2.33;;;10.60;99.90;;;;;;5050241;28;20226;-75
2022/06/16 17:34:28;;;;;;;3.92;2.53;;;10.60;99.90;;;;;;5052637;28;20193;-76
2022/06/16 17:36:59;;;;;;;7.05;2.50;;;10.50;99.90;;;;;;5052586;28;20185;-76
2022/06/16 17:39:33;;;;;;;5.50;2.50;;;10.30;99.90;;;;;;5053149;28;20189;-76
2022/06/16 17:42:04;;;;;;;4.13;2.53;;;10.20;99.90;;;;;;5053023;28;20194;-74
2022/06/16 17:44:36;;;;;;;3.83;2.10;;;10.20;99.90;;;;;;5052664;28;20236;-75
2022/06/16 17:47:08;;;;;;;4.68;2.40;;;10.20;99.90;;;;;;5052851;28;20644;-75
2022/06/16 17:49:38;;;;;;;4.50;2.33;;;10.20;99.90;;;;;;5052647;28;20201;-76
2022/06/16 18:00:41;;;;;;;4.28;2.50;;;10.20;99.90;;;;;;5052729;28;20205;-75
2022/06/16 18:03:12;;;;;;;5.55;2.60;;;10.20;99.90;;;;;;5055248;28;20221;-75
2022/06/16 18:05:42;;;;;;;4.57;2.60;;;10.20;99.90;;;;;;5072866;28;20640;-75
2022/06/16 18:08:14;;;;;;;3.90;2.47;;;10.20;99.90;;;;;;5072938;28;20620;-75
2022/06/16 18:10:45;;;;;;;5.70;2.28;;;10.20;99.90;;;;;;5072767;28;20252;-75
2022/06/16 18:13:17;;;;;;;4.35;2.50;;;10.20;99.90;;;;;;5052803;28;20196;-75
2022/06/16 18:15:51;;;;;;;4.38;2.22;;;10.20;99.90;;;;;;5052570;28;20197;-77
2022/06/16 18:18:24;;;;;;;4.00;2.10;;;10.20;99.90;;;;;;5053819;28;20702;-75
2022/06/16 18:20:56;;;;;;;4.70;2.10;;;10.20;99.90;;;;;;5059284;28;20205;-77
2022/06/16 18:23:27;;;;;;;4.95;2.03;;;10.20;99.90;;;;;;5069383;28;20243;-77
2022/06/16 18:25:59;;;;;;;3.22;2.17;;;10.20;99.90;;;;;;5076508;28;20185;-78
2022/06/16 18:28:29;;;;;;;6.88;2.10;;;10.20;99.90;;;;;;5075890;28;20560;-76
2022/06/16 18:31:02;;;;;;;2.50;1.90;;;10.20;99.90;;;;;;5076169;28;20296;-77
2022/06/16 18:33:32;;;;;;;4.25;1.90;;;10.20;99.90;;;;;;5075927;28;20239;-78
2022/06/16 18:36:03;;;;;;;3.25;1.98;;;10.20;99.90;;;;;;5076379;28;20196;-77
2022/06/16 18:38:34;;;;;;;5.00;2.00;;;10.30;99.90;;;;;;5076304;28;20211;-78
2022/06/16 18:41:04;;;;;;;2.88;1.80;;;10.30;99.90;;;;;;5075682;28;20200;-78
2022/06/16 18:43:40;;;;;;;3.85;1.70;;;10.20;99.90;;;;;;5075282;28;20189;-77
2022/06/16 18:46:18;;;;;;;3.22;1.80;;;10.30;99.90;;;;;;5075807;28;20678;-75
2022/06/16 18:48:49;;;;;;;1.83;1.30;;;10.30;99.90;;;;;;5075610;28;20635;-76
2022/06/16 18:51:21;;;;;;;2.13;1.30;;;10.30;99.90;;;;;;5075565;28;20209;-75
2022/06/16 18:53:53;;;;;;;2.33;1.48;;;10.40;99.90;;;;;;5073218;28;20675;-77
2022/06/16 18:56:24;;;;;;;1.92;1.42;;;10.40;99.90;;;;;;5075635;28;20197;-78
2022/06/16 18:58:54;;;;;;;2.28;1.40;;;10.40;99.90;;;;;;5075843;28;20204;-77
2022/06/16 19:01:27;;;;;;;2.65;1.25;;;10.40;99.90;;;;;;5075026;28;20189;-77
2022/06/16 19:03:58;;;;;;;2.53;1.13;;;10.50;99.90;;;;;;5083251;28;20223;-78
2022/06/16 19:06:31;;;;;;;1.40;1.10;;;10.50;99.90;;;;;;5077414;28;20877;-78
2022/06/16 19:09:02;;;;;;;1.33;1.10;;;10.50;99.90;;;;;;5084770;28;20200;-77
2022/06/16 19:12:17;;;;;;;1.40;0.90;;;10.50;99.90;;;;;;5084978;28;20232;-76
2022/06/16 19:14:24;;;;;;;1.77;1.00;;;10.60;99.90;;;;;;5074148;28;20238;-78
2022/06/16 19:16:56;;;;;;;2.85;0.90;;;10.70;99.90;;;;;;5090210;28;20185;-77
2022/06/16 19:19:27;;;;;;;1.00;0.90;;;10.70;99.90;;;;;;5084111;28;20185;-76
2022/06/16 19:22:05;;;;;;;1.65;1.02;;;10.80;99.90;;;;;;5083898;28;20185;-77
2022/06/16 19:24:36;;;;;;;1.25;1.10;;;10.70;99.90;;;;;;5080524;28;20192;-77
2022/06/16 19:27:07;;;;;;;1.45;0.95;;;10.70;99.90;;;;;;5086633;28;20193;-77
2022/06/16 19:29:38;;;;;;;1.20;1.10;;;10.70;99.90;;;;;;5082938;28;20560;-76
2022/06/16 19:32:11;;;;;;;2.10;1.17;;;10.80;99.90;;;;;;5075976;28;20223;-76
2022/06/16 19:34:42;;;;;;;1.27;0.93;;;10.80;99.90;;;;;;5076227;28;20207;-77
2022/06/16 19:37:13;;;;;;;1.00;0.90;;;10.70;99.90;;;;;;5082589;28;20193;-77
2022/06/16 19:39:54;;;;;;;1.60;1.13;;;10.70;99.90;;;;;;5079258;28;20200;-77
2022/06/16 19:42:25;;;;;;;1.17;1.08;;;10.70;99.90;;;;;;5081607;28;20242;-76
2022/06/16 19:53:21;;;;;;;1.10;0.90;;;10.60;99.90;;;;;;5080838;28;20237;-78
2022/06/16 19:55:52;;;;;;;1.33;1.10;;;10.70;99.90;;;;;;5081853;28;20192;-77
2022/06/16 19:58:24;;;;;;;1.15;0.85;;;10.60;99.90;;;;;;5132756;22;20290;-77
2022/06/16 20:00:55;;;;;;;2.35;1.15;;;10.60;99.90;;;;;;5124243;27;20197;-77
2022/06/16 20:03:31;;;;;;;1.10;1.00;;;10.60;99.90;;;;;;5135202;27;20183;-78
2022/06/16 20:06:04;;;;;;;5.68;1.23;;;10.60;99.90;;;;;;5140580;27;20185;-74
2022/06/16 20:08:36;;;;;;;1.50;1.00;;;10.60;99.90;;;;;;5135300;27;20202;-74
2022/06/16 20:11:08;;;;;;;1.40;0.95;;;10.70;99.90;;;;;;5136044;27;20210;-76